首页
METAR-TAF:

METAR-TAF

机场 :

楠迪國際機場

楠迪, 斐濟

纬度: 17-45S, 经度: 177-27E, 海拔: 13米

当前天气观测

该预报发布于22分钟前的05:00 UTC
风速3节,风向
温度 27°C
湿度 79%
气压 1012 hPa
能见度10公里或以上
散云层高于2500英尺
多云层高于4800英尺

METAR: NFFN 190500Z 19003KT 9999 SCT025 BKN048 27/23 Q1012 TEMPO 5000 SHRA

时间: 17:22 (05:22 UTC)

预报

该预报发布于6小时和11分钟前的23:11 UTC
预报有效从19日的 00点(UTC)到 19日的 24点(UTC)
风速10节,风向西
能见度10公里或以上
散云层高于2500英尺
散云层高于4500英尺
短暂存在
从 19日的 00点(UTC)到 19日的 12点(UTC)
能見度: 3000
多云层高于1500英尺
少量云层高于1700英尺, 积雨云.
雷暴, 雨
成为
从 19日的 04点(UTC)到 19日的 06点(UTC)
风速9节,风向东转东南

TAF: NFFN 182311Z 1900/1924 27010KT 9999 SCT025 SCT045 TEMPO 1900/1912 3000 TSRA BKN015 FEW017CB BECMG 1904/1906 11009KT

超过4000个机场的气象观测和天气预报(METAR&TAF报告)。

可查询的气象台以黄色和红色小点在地图上表示。

将鼠标移到小点上方,可查看气象台名称。

然后点击查看天气观测和预报。

如需切换地图:点击带黑十字的绿色按钮放大地图;点击带横线的绿色按钮缩小地图;或者点击绿色箭头查看邻近地区的地图。


METAR-TAF: